createdAt,value
2019-05-22T00:00:13.174Z,2.95
2019-05-22T00:02:44.645Z,3.47
2019-05-22T00:05:18.958Z,2.87
2019-05-22T00:07:48.919Z,2.55
2019-05-22T00:10:20.618Z,2.05
2019-05-22T00:12:49.603Z,1.80
2019-05-22T00:15:18.728Z,2.20
2019-05-22T00:17:49.083Z,3.35
2019-05-22T00:20:20.231Z,1.98
2019-05-22T00:22:51.169Z,5.37
2019-05-22T00:25:21.153Z,3.35
2019-05-22T00:27:53.354Z,3.12
2019-05-22T00:30:24.822Z,3.25
2019-05-22T00:32:53.289Z,2.87
2019-05-22T00:35:25.263Z,3.22
2019-05-22T00:37:54.383Z,4.65
2019-05-22T00:40:24.420Z,3.65
2019-05-22T00:43:03.452Z,3.55
2019-05-22T00:45:25.281Z,3.72
2019-05-22T00:47:54.533Z,3.83
2019-05-22T00:50:28.872Z,2.77
2019-05-22T00:53:09.571Z,3.80
2019-05-22T00:55:40.394Z,2.77
2019-05-22T00:58:20.942Z,3.65
2019-05-22T01:00:52.609Z,2.12
2019-05-22T01:03:23.295Z,3.30
2019-05-22T01:05:52.068Z,2.83
2019-05-22T01:08:22.059Z,2.62
2019-05-22T01:10:54.830Z,3.25
2019-05-22T01:13:25.496Z,2.85
2019-05-22T01:15:55.920Z,3.17
2019-05-22T01:18:26.087Z,2.75
2019-05-22T01:20:58.348Z,2.37
2019-05-22T01:23:30.223Z,2.37
2019-05-22T01:26:01.124Z,3.47
2019-05-22T01:28:30.111Z,2.87
2019-05-22T01:31:00.587Z,2.90
2019-05-22T01:33:32.238Z,3.85
2019-05-22T01:36:02.949Z,2.47
2019-05-22T01:38:33.436Z,2.67
2019-05-22T01:41:18.508Z,23.75
2019-05-22T01:43:48.840Z,10.60
2019-05-22T01:46:19.360Z,9.53
2019-05-22T01:48:51.000Z,7.05
2019-05-22T01:51:20.733Z,4.53
2019-05-22T01:53:52.293Z,2.83
2019-05-22T01:56:21.612Z,4.20
2019-05-22T01:58:51.193Z,3.30
2019-05-22T02:01:20.877Z,7.05
2019-05-22T02:03:50.913Z,4.15
2019-05-22T02:06:22.116Z,3.77
2019-05-22T02:08:57.052Z,2.92
2019-05-22T02:11:27.269Z,5.00
2019-05-22T02:14:12.348Z,3.77
2019-05-22T02:16:56.283Z,3.22
2019-05-22T02:19:16.489Z,4.25
2019-05-22T02:21:46.023Z,3.72
2019-05-22T02:24:15.964Z,3.50
2019-05-22T02:26:46.159Z,5.12
2019-05-22T02:29:16.726Z,6.90
2019-05-22T02:31:45.212Z,5.60
2019-05-22T02:34:14.978Z,5.75
2019-05-22T02:36:45.285Z,5.40
2019-05-22T02:39:28.746Z,6.42
2019-05-22T02:42:00.269Z,6.12
2019-05-22T02:44:29.745Z,5.10
2019-05-22T02:47:16.578Z,5.92
2019-05-22T02:49:32.748Z,5.03
2019-05-22T02:52:02.062Z,4.15
2019-05-22T02:54:32.745Z,4.45
2019-05-22T02:57:02.554Z,5.00
2019-05-22T02:59:31.544Z,3.45
2019-05-22T03:02:02.132Z,7.60
2019-05-22T03:04:53.446Z,8.83
2019-05-22T03:07:23.838Z,7.97
2019-05-22T03:09:53.222Z,11.97
2019-05-22T03:12:22.471Z,11.90
2019-05-22T03:14:51.904Z,10.82
2019-05-22T03:17:30.688Z,13.45
2019-05-22T03:20:01.354Z,11.22
2019-05-22T03:22:37.385Z,14.90
2019-05-22T03:25:09.511Z,11.78
2019-05-22T03:27:44.015Z,13.30
2019-05-22T03:30:22.588Z,13.28
2019-05-22T03:32:52.061Z,13.95
2019-05-22T03:35:22.573Z,12.20
2019-05-22T03:37:51.625Z,11.83
2019-05-22T03:40:20.637Z,11.93
2019-05-22T03:42:50.843Z,11.22
2019-05-22T03:45:21.235Z,11.73
2019-05-22T03:47:52.263Z,12.23
2019-05-22T03:50:20.885Z,10.68
2019-05-22T03:52:49.282Z,10.88
2019-05-22T03:55:17.816Z,11.35
2019-05-22T03:57:46.555Z,12.13
2019-05-22T04:00:18.780Z,13.50
2019-05-22T04:02:50.789Z,12.82
2019-05-22T04:05:20.823Z,13.03
2019-05-22T04:07:51.158Z,13.53
2019-05-22T04:10:19.864Z,11.20
2019-05-22T04:12:48.446Z,9.78
2019-05-22T04:15:17.936Z,9.05
2019-05-22T04:17:46.644Z,9.60
2019-05-22T04:20:20.204Z,10.05
2019-05-22T04:22:51.202Z,9.78
2019-05-22T04:25:19.575Z,9.75
2019-05-22T04:27:48.393Z,9.93
2019-05-22T04:30:18.612Z,12.07
2019-05-22T04:32:49.098Z,8.25
2019-05-22T04:35:19.379Z,10.08
2019-05-22T04:37:49.645Z,11.48
2019-05-22T04:40:28.383Z,11.43
2019-05-22T04:42:58.968Z,12.45
2019-05-22T04:45:28.446Z,11.18
2019-05-22T04:48:01.139Z,12.07
2019-05-22T04:50:31.217Z,10.40
2019-05-22T04:53:00.497Z,10.65
2019-05-22T04:55:30.700Z,12.25
2019-05-22T04:58:04.855Z,9.90
2019-05-22T05:00:35.194Z,9.18
2019-05-22T05:03:05.718Z,12.60
2019-05-22T05:05:42.237Z,9.55
2019-05-22T05:08:12.117Z,9.05
2019-05-22T05:10:43.842Z,11.50
2019-05-22T05:13:12.416Z,8.60
2019-05-22T05:15:40.817Z,13.90
2019-05-22T05:18:09.702Z,10.15
2019-05-22T05:20:39.108Z,9.45
2019-05-22T05:23:07.937Z,9.55
2019-05-22T05:25:36.593Z,7.87
2019-05-22T05:28:07.258Z,10.58
2019-05-22T05:30:35.653Z,9.63
2019-05-22T05:33:05.470Z,8.20
2019-05-22T05:35:35.170Z,10.65
2019-05-22T05:38:05.518Z,11.53
2019-05-22T05:40:40.203Z,10.15
2019-05-22T05:43:11.621Z,8.35
2019-05-22T05:45:42.286Z,10.08
2019-05-22T05:48:13.747Z,9.50
2019-05-22T05:51:02.209Z,9.23
2019-05-22T05:53:33.533Z,8.83
2019-05-22T05:56:16.452Z,8.85
2019-05-22T05:58:45.461Z,8.38
2019-05-22T06:01:20.360Z,10.95
2019-05-22T06:03:49.624Z,9.50
2019-05-22T06:06:25.953Z,11.75
2019-05-22T06:08:54.916Z,10.28
2019-05-22T06:11:40.928Z,8.70
2019-05-22T06:14:11.745Z,9.05
2019-05-22T06:16:53.831Z,8.60
2019-05-22T06:19:23.724Z,9.58
2019-05-22T06:21:52.458Z,8.58
2019-05-22T06:24:25.586Z,11.60
2019-05-22T06:26:57.596Z,7.70
2019-05-22T06:29:29.295Z,8.28
2019-05-22T06:32:07.838Z,12.58
2019-05-22T06:34:37.730Z,10.30
2019-05-22T06:37:44.514Z,10.88
2019-05-22T06:40:13.788Z,8.85
2019-05-22T06:42:44.975Z,8.48
2019-05-22T06:45:13.441Z,17.52
2019-05-22T06:47:41.831Z,9.30
2019-05-22T06:50:11.039Z,11.20
2019-05-22T06:52:39.763Z,13.78
2019-05-22T06:55:09.009Z,10.53
2019-05-22T06:57:37.669Z,8.50
2019-05-22T07:00:14.231Z,10.48
2019-05-22T07:02:39.687Z,10.25
2019-05-22T07:05:09.196Z,8.20
2019-05-22T07:07:37.839Z,7.47
2019-05-22T07:10:08.235Z,8.48
2019-05-22T07:12:37.058Z,8.40
2019-05-22T07:15:10.435Z,8.40
2019-05-22T07:17:39.674Z,8.53
2019-05-22T07:20:08.901Z,8.23
2019-05-22T07:22:37.531Z,8.70
2019-05-22T07:25:09.693Z,6.05
2019-05-22T07:27:38.789Z,6.80
2019-05-22T07:30:09.727Z,8.73
2019-05-22T07:32:39.030Z,7.97
2019-05-22T07:35:08.637Z,8.38
2019-05-22T07:37:45.418Z,7.85
2019-05-22T07:40:14.432Z,10.00
2019-05-22T07:42:42.827Z,7.33
2019-05-22T07:45:11.951Z,7.25
2019-05-22T07:47:42.617Z,5.37
2019-05-22T07:50:12.921Z,7.28
2019-05-22T07:52:41.483Z,6.22
2019-05-22T07:55:10.342Z,7.47
2019-05-22T07:57:41.058Z,7.22
2019-05-22T08:00:10.603Z,6.65
2019-05-22T08:02:42.047Z,6.00
2019-05-22T08:05:12.813Z,5.47
2019-05-22T08:07:41.619Z,5.50
2019-05-22T08:10:13.915Z,4.70
2019-05-22T08:12:43.946Z,4.87
2019-05-22T08:15:13.156Z,5.58
2019-05-22T08:17:42.625Z,4.60
2019-05-22T08:20:11.846Z,3.77
2019-05-22T08:22:40.674Z,4.05
2019-05-22T08:25:09.933Z,3.33
2019-05-22T08:27:39.821Z,4.33
2019-05-22T08:30:09.109Z,4.95
2019-05-22T08:32:38.642Z,2.98
2019-05-22T08:35:09.038Z,4.03
2019-05-22T08:37:39.642Z,4.17
2019-05-22T08:40:11.663Z,3.42
2019-05-22T08:42:41.367Z,3.30
2019-05-22T08:45:11.592Z,3.25
2019-05-22T08:47:40.579Z,3.72
2019-05-22T08:50:12.279Z,6.65
2019-05-22T08:52:44.796Z,10.88
2019-05-22T08:55:14.424Z,8.78
2019-05-22T08:57:43.527Z,3.00
2019-05-22T09:00:19.275Z,3.52
2019-05-22T09:02:48.232Z,4.50
2019-05-22T09:05:20.956Z,4.65
2019-05-22T09:07:47.527Z,3.77
2019-05-22T09:10:16.254Z,3.40
2019-05-22T09:12:44.638Z,6.15
2019-05-22T09:15:13.712Z,4.53
2019-05-22T09:17:42.370Z,2.67
2019-05-22T09:20:11.946Z,2.20
2019-05-22T09:22:41.599Z,1.10
2019-05-22T09:25:13.827Z,1.60
2019-05-22T09:27:43.109Z,1.80
2019-05-22T09:30:13.090Z,5.45
2019-05-22T09:32:41.734Z,0.80
2019-05-22T09:35:11.767Z,0.80
2019-05-22T09:37:40.536Z,0.93
2019-05-22T09:40:09.252Z,0.60
2019-05-22T09:42:38.312Z,0.35
2019-05-22T09:45:08.501Z,0.93
2019-05-22T09:47:38.714Z,0.57
2019-05-22T09:50:11.062Z,0.85
2019-05-22T09:52:56.226Z,0.50
2019-05-22T09:55:13.042Z,0.30
2019-05-22T09:57:43.177Z,0.80
2019-05-22T10:00:12.957Z,0.80
2019-05-22T10:02:41.993Z,1.62
2019-05-22T10:05:11.632Z,1.52
2019-05-22T10:07:57.753Z,0.50
2019-05-22T10:10:14.011Z,0.93
2019-05-22T10:12:42.754Z,1.20
2019-05-22T10:15:13.150Z,1.87
2019-05-22T10:17:47.334Z,1.82
2019-05-22T10:20:17.319Z,1.20
2019-05-22T10:22:46.285Z,1.60
2019-05-22T10:25:17.194Z,5.05
2019-05-22T10:27:47.117Z,6.67
2019-05-22T10:30:19.185Z,5.40
2019-05-22T10:32:48.021Z,4.45
2019-05-22T10:35:17.398Z,4.97
2019-05-22T10:37:46.135Z,6.67
2019-05-22T10:40:15.652Z,6.17
2019-05-22T10:42:45.430Z,6.00
2019-05-22T10:45:14.146Z,7.25
2019-05-22T10:47:44.054Z,9.38
2019-05-22T10:50:13.869Z,8.93
2019-05-22T10:52:42.835Z,7.65
2019-05-22T10:55:12.924Z,8.93
2019-05-22T10:57:42.921Z,7.05
2019-05-22T11:00:14.936Z,10.95
2019-05-22T11:02:43.746Z,10.00
2019-05-22T11:05:13.079Z,11.97
2019-05-22T11:07:41.628Z,12.60
2019-05-22T11:10:10.859Z,12.63
2019-05-22T11:12:39.878Z,12.90
2019-05-22T11:15:09.424Z,11.35
2019-05-22T11:17:39.294Z,12.40
2019-05-22T11:20:09.979Z,12.75
2019-05-22T11:22:38.825Z,12.50
2019-05-22T11:25:08.737Z,12.63
2019-05-22T11:27:37.726Z,16.52
2019-05-22T11:30:11.254Z,14.90
2019-05-22T11:32:40.222Z,16.35
2019-05-22T11:35:10.251Z,17.92
2019-05-22T11:37:39.360Z,15.55
2019-05-22T11:40:08.867Z,18.85
2019-05-22T11:42:39.215Z,17.87
2019-05-22T11:45:11.198Z,16.80
2019-05-22T11:47:41.017Z,16.93
2019-05-22T11:50:11.906Z,15.90
2019-05-22T11:52:42.108Z,19.75
2019-05-22T11:55:12.519Z,17.67
2019-05-22T11:57:43.231Z,18.57
2019-05-22T12:00:12.985Z,18.12
2019-05-22T12:02:41.538Z,18.25
2019-05-22T12:05:10.487Z,19.25
2019-05-22T12:07:43.732Z,20.55
2019-05-22T12:10:14.792Z,21.45
2019-05-22T12:12:44.809Z,23.98
2019-05-22T12:15:15.156Z,24.12
2019-05-22T12:17:44.880Z,20.75
2019-05-22T12:20:15.181Z,21.48
2019-05-22T12:22:43.628Z,26.65
2019-05-22T12:25:14.871Z,21.93
2019-05-22T12:27:43.892Z,24.45
2019-05-22T12:30:13.735Z,20.52
2019-05-22T12:32:42.368Z,19.82
2019-05-22T12:35:13.743Z,20.25
2019-05-22T12:37:42.953Z,21.07
2019-05-22T12:40:14.209Z,21.75
2019-05-22T12:42:42.599Z,17.50
2019-05-22T12:45:12.817Z,17.92
2019-05-22T12:47:43.277Z,17.42
2019-05-22T12:50:15.688Z,17.05
2019-05-22T12:52:47.124Z,16.07
2019-05-22T12:55:17.209Z,13.45
2019-05-22T12:57:46.052Z,13.58
2019-05-22T13:00:15.645Z,13.68
2019-05-22T13:02:44.581Z,13.00
2019-05-22T13:05:14.529Z,13.50
2019-05-22T13:07:43.304Z,12.05
2019-05-22T13:10:12.144Z,11.83
2019-05-22T13:12:40.545Z,11.00
2019-05-22T13:15:11.014Z,12.82
2019-05-22T13:17:40.884Z,10.38
2019-05-22T13:20:12.266Z,9.85
2019-05-22T13:22:43.991Z,8.90
2019-05-22T13:25:15.449Z,8.20
2019-05-22T13:27:45.808Z,7.70
2019-05-22T13:30:17.142Z,8.40
2019-05-22T13:32:46.258Z,6.90
2019-05-22T13:35:17.670Z,8.50
2019-05-22T13:37:46.354Z,9.23
2019-05-22T13:40:27.026Z,8.63
2019-05-22T13:42:45.757Z,8.83
2019-05-22T13:45:28.688Z,7.03
2019-05-22T13:47:46.112Z,7.95
2019-05-22T13:50:17.387Z,6.75
2019-05-22T13:52:46.637Z,5.97
2019-05-22T13:55:15.770Z,6.55
2019-05-22T13:57:44.584Z,5.40
2019-05-22T14:00:16.529Z,5.40
2019-05-22T14:02:44.923Z,4.10
2019-05-22T14:05:14.115Z,3.47
2019-05-22T14:07:42.686Z,3.35
2019-05-22T14:10:11.652Z,2.77
2019-05-22T14:12:40.104Z,2.20
2019-05-22T14:15:09.239Z,3.37
2019-05-22T14:17:37.785Z,3.20
2019-05-22T14:20:09.528Z,2.40
2019-05-22T14:22:38.443Z,3.17
2019-05-22T14:25:08.682Z,3.05
2019-05-22T14:27:41.452Z,2.62
2019-05-22T14:30:09.431Z,4.30
2019-05-22T14:32:38.163Z,4.42
2019-05-22T14:35:07.162Z,2.22
2019-05-22T14:37:35.618Z,3.52
2019-05-22T14:40:07.277Z,4.17
2019-05-22T14:42:35.641Z,3.00
2019-05-22T14:45:05.930Z,4.97
2019-05-22T14:47:34.319Z,2.40
2019-05-22T14:50:03.535Z,5.15
2019-05-22T14:52:32.673Z,2.20
2019-05-22T14:55:01.657Z,5.62
2019-05-22T14:57:30.174Z,4.87
2019-05-22T14:59:58.989Z,3.40
2019-05-22T15:02:28.101Z,4.35
2019-05-22T15:04:57.444Z,2.42
2019-05-22T15:07:25.996Z,3.65
2019-05-22T15:09:54.420Z,2.70
2019-05-22T15:12:22.870Z,2.10
2019-05-22T15:14:51.323Z,3.50
2019-05-22T15:17:31.869Z,2.67
2019-05-22T15:19:50.840Z,3.42
2019-05-22T15:22:19.741Z,3.42
2019-05-22T15:24:48.194Z,4.58
2019-05-22T15:27:16.587Z,3.77
2019-05-22T15:29:44.968Z,3.72
2019-05-22T15:32:13.869Z,3.35
2019-05-22T15:34:43.260Z,2.92
2019-05-22T15:37:13.563Z,2.20
2019-05-22T15:39:43.424Z,2.87
2019-05-22T15:42:15.605Z,3.37
2019-05-22T15:44:44.824Z,3.45
2019-05-22T15:47:13.612Z,2.42
2019-05-22T15:49:44.302Z,3.72
2019-05-22T15:52:16.207Z,3.87
2019-05-22T15:54:46.059Z,3.42
2019-05-22T15:57:17.799Z,4.00
2019-05-22T15:59:48.703Z,4.25
2019-05-22T16:02:21.752Z,3.45
2019-05-22T16:04:50.727Z,3.65
2019-05-22T16:07:19.130Z,4.65
2019-05-22T16:09:50.797Z,3.40
2019-05-22T16:12:19.635Z,3.77
2019-05-22T16:14:50.206Z,3.33
2019-05-22T16:17:19.211Z,3.98
2019-05-22T16:19:48.840Z,4.62
2019-05-22T16:22:17.474Z,5.42
2019-05-22T16:24:46.017Z,6.30
2019-05-22T16:27:16.258Z,3.98
2019-05-22T16:29:45.106Z,4.40
2019-05-22T16:32:16.652Z,3.52
2019-05-22T16:34:45.374Z,3.22
2019-05-22T16:37:14.137Z,3.10
2019-05-22T16:39:42.601Z,3.45
2019-05-22T16:42:11.643Z,3.92
2019-05-22T16:44:40.423Z,4.30
2019-05-22T16:47:11.169Z,3.85
2019-05-22T16:49:39.984Z,4.50
2019-05-22T16:52:10.650Z,3.65
2019-05-22T16:54:41.243Z,4.42
2019-05-22T16:57:11.580Z,4.15
2019-05-22T16:59:40.875Z,5.53
2019-05-22T17:02:11.997Z,2.67
2019-05-22T17:04:40.903Z,2.67
2019-05-22T17:07:09.361Z,4.85
2019-05-22T17:09:39.712Z,3.70
2019-05-22T17:12:11.341Z,4.28
2019-05-22T17:14:41.327Z,2.72
2019-05-22T17:17:11.530Z,3.02
2019-05-22T17:19:40.181Z,2.40
2019-05-22T17:22:09.585Z,3.08
2019-05-22T17:24:38.238Z,4.78
2019-05-22T17:27:08.054Z,2.70
2019-05-22T17:29:36.838Z,3.67
2019-05-22T17:32:06.533Z,3.47
2019-05-22T17:34:37.468Z,3.83
2019-05-22T17:37:13.515Z,4.75
2019-05-22T17:39:45.410Z,3.25
2019-05-22T17:42:19.965Z,2.62
2019-05-22T17:44:50.651Z,3.90
2019-05-22T17:47:21.751Z,4.40
2019-05-22T17:49:50.910Z,2.33
2019-05-22T17:52:21.125Z,3.77
2019-05-22T17:54:52.039Z,2.80
2019-05-22T17:57:22.593Z,3.47
2019-05-22T17:59:53.158Z,4.47
2019-05-22T18:02:23.858Z,3.72
2019-05-22T18:04:52.538Z,2.22
2019-05-22T18:07:22.248Z,2.37
2019-05-22T18:09:50.718Z,3.22
2019-05-22T18:12:19.951Z,3.20
2019-05-22T18:14:48.914Z,3.65
2019-05-22T18:17:17.745Z,5.78
2019-05-22T18:19:46.891Z,3.08
2019-05-22T18:22:15.799Z,3.60
2019-05-22T18:24:44.968Z,4.95
2019-05-22T18:27:13.686Z,3.80
2019-05-22T18:29:42.378Z,3.37
2019-05-22T18:32:11.676Z,5.22
2019-05-22T18:34:40.467Z,2.87
2019-05-22T18:37:08.848Z,4.42
2019-05-22T18:39:37.745Z,7.12
2019-05-22T18:42:06.063Z,7.85
2019-05-22T18:44:34.821Z,7.28
2019-05-22T18:47:05.238Z,4.28
2019-05-22T18:49:33.633Z,6.55
2019-05-22T18:52:02.299Z,4.17
2019-05-22T18:54:30.812Z,3.80
2019-05-22T18:56:59.547Z,6.70
2019-05-22T18:59:27.974Z,4.45
2019-05-22T19:01:56.947Z,5.72
2019-05-22T19:04:25.387Z,4.20
2019-05-22T19:06:56.018Z,3.55
2019-05-22T19:09:24.946Z,3.92
2019-05-22T19:11:53.634Z,7.55
2019-05-22T19:14:22.220Z,5.10
2019-05-22T19:16:51.004Z,3.47
2019-05-22T19:19:20.013Z,6.42
2019-05-22T19:21:48.450Z,4.33
2019-05-22T19:24:16.991Z,4.35
2019-05-22T19:26:45.914Z,4.03
2019-05-22T19:29:14.563Z,5.40
2019-05-22T19:31:42.970Z,4.60
2019-05-22T19:34:12.212Z,6.67
2019-05-22T19:36:40.584Z,5.10
2019-05-22T19:39:09.696Z,8.45
2019-05-22T19:41:38.158Z,7.97
2019-05-22T19:44:07.622Z,8.80
2019-05-22T19:46:36.290Z,10.15
2019-05-22T19:49:05.726Z,11.63
2019-05-22T19:51:34.691Z,12.30
2019-05-22T19:54:04.324Z,19.25
2019-05-22T19:56:33.681Z,26.57
2019-05-22T19:59:02.775Z,30.12
2019-05-22T20:01:33.038Z,26.25
2019-05-22T20:04:02.307Z,28.38
2019-05-22T20:06:30.886Z,31.25
2019-05-22T20:08:59.298Z,28.05
2019-05-22T20:11:27.823Z,34.90
2019-05-22T20:13:56.668Z,28.45
2019-05-22T20:16:25.142Z,25.88
2019-05-22T20:18:54.033Z,27.40
2019-05-22T20:21:22.703Z,24.63
2019-05-22T20:23:51.373Z,24.35
2019-05-22T20:26:20.942Z,26.45
2019-05-22T20:28:49.666Z,24.27
2019-05-22T20:31:18.139Z,26.20
2019-05-22T20:33:46.794Z,23.47
2019-05-22T20:36:16.455Z,23.50
2019-05-22T20:38:45.301Z,26.62
2019-05-22T20:41:13.714Z,28.25
2019-05-22T20:43:43.873Z,31.07
2019-05-22T20:46:15.112Z,28.40
2019-05-22T20:48:43.560Z,32.20
2019-05-22T20:51:19.217Z,33.50
2019-05-22T20:53:54.308Z,32.38
2019-05-22T20:56:21.126Z,48.00
2019-05-22T20:58:50.082Z,37.50
2019-05-22T21:01:18.961Z,38.55
2019-05-22T21:03:47.343Z,33.55
2019-05-22T21:06:18.318Z,33.50
2019-05-22T21:08:47.284Z,38.20
2019-05-22T21:11:17.587Z,36.95
2019-05-22T21:13:46.309Z,35.83
2019-05-22T21:16:16.944Z,35.13
2019-05-22T21:18:50.003Z,37.33
2019-05-22T21:21:20.435Z,36.05
2019-05-22T21:23:49.156Z,39.18
2019-05-22T21:26:18.829Z,38.15
2019-05-22T21:28:48.679Z,41.13
2019-05-22T21:31:18.250Z,41.15
2019-05-22T21:33:46.979Z,39.92
2019-05-22T21:36:16.573Z,41.15
2019-05-22T21:38:46.402Z,38.90
2019-05-22T21:41:14.795Z,43.80
2019-05-22T21:43:43.178Z,44.90
2019-05-22T21:46:12.282Z,41.35
2019-05-22T21:48:41.509Z,39.85
2019-05-22T21:51:10.559Z,45.83
2019-05-22T21:53:39.528Z,49.13
2019-05-22T21:56:09.240Z,49.30
2019-05-22T21:58:38.440Z,49.23
2019-05-22T22:01:10.365Z,47.83
2019-05-22T22:03:40.473Z,42.55
2019-05-22T22:06:09.770Z,40.67
2019-05-22T22:08:38.152Z,39.13
2019-05-22T22:11:08.196Z,44.03
2019-05-22T22:13:39.340Z,46.70
2019-05-22T22:16:08.587Z,43.87
2019-05-22T22:18:38.994Z,53.87
2019-05-22T22:21:08.074Z,47.48
2019-05-22T22:23:37.327Z,63.92
2019-05-22T22:26:24.180Z,55.65
2019-05-22T22:28:38.263Z,57.33
2019-05-22T22:31:11.383Z,56.33
2019-05-22T22:33:42.260Z,58.58
2019-05-22T22:36:11.202Z,60.12
2019-05-22T22:38:40.178Z,61.08
2019-05-22T22:41:09.895Z,63.10
2019-05-22T22:43:39.522Z,71.15
2019-05-22T22:46:12.643Z,66.05
2019-05-22T22:48:43.296Z,71.22
2019-05-22T22:51:13.028Z,76.02
2019-05-22T22:53:44.466Z,72.25
2019-05-22T22:56:14.103Z,79.05
2019-05-22T22:58:42.791Z,81.90
2019-05-22T23:01:15.208Z,80.62
2019-05-22T23:03:47.379Z,86.08
2019-05-22T23:06:17.319Z,88.80
2019-05-22T23:08:47.260Z,80.87
2019-05-22T23:11:17.058Z,71.87
2019-05-22T23:13:46.300Z,67.70
2019-05-22T23:16:16.059Z,62.67
2019-05-22T23:19:04.360Z,65.90
2019-05-22T23:21:33.486Z,70.72
2019-05-22T23:24:00.737Z,71.55
2019-05-22T23:26:30.095Z,82.22
2019-05-22T23:28:59.289Z,76.07
2019-05-22T23:31:29.251Z,72.67
2019-05-22T23:33:59.195Z,68.20
2019-05-22T23:36:28.528Z,69.58
2019-05-22T23:38:59.512Z,78.02
2019-05-22T23:41:30.640Z,69.27
2019-05-22T23:43:59.800Z,71.72
2019-05-22T23:46:29.135Z,66.10
2019-05-22T23:48:59.343Z,67.10
2019-05-22T23:51:28.697Z,67.35
2019-05-22T23:53:58.271Z,69.50
2019-05-22T23:56:27.765Z,73.45
2019-05-22T23:58:58.479Z,66.85
